createdAt,value
2023-03-15T00:01:05.563Z,96285.03
2023-03-15T00:03:37.374Z,96271.38
2023-03-15T00:06:07.815Z,96272.84
2023-03-15T00:08:36.207Z,96274.53
2023-03-15T00:11:04.977Z,96268.66
2023-03-15T00:13:33.372Z,96275.06
2023-03-15T00:16:03.342Z,96276.34
2023-03-15T00:18:32.100Z,96270.94
2023-03-15T00:21:03.124Z,96283.19
2023-03-15T00:23:32.910Z,96277.56
2023-03-15T00:26:01.233Z,96283.09
2023-03-15T00:28:29.555Z,96286.00
2023-03-15T00:31:05.669Z,96292.22
2023-03-15T00:33:35.179Z,96279.03
2023-03-15T00:36:08.068Z,96285.81
2023-03-15T00:38:39.720Z,96294.63
2023-03-15T00:41:09.170Z,96282.09
2023-03-15T00:43:37.844Z,96288.25
2023-03-15T00:46:06.988Z,96289.00
2023-03-15T00:48:36.375Z,96295.16
2023-03-15T00:51:06.919Z,96300.47
2023-03-15T00:53:37.427Z,96297.81
2023-03-15T00:56:07.317Z,96296.97
2023-03-15T00:58:36.147Z,96309.06
2023-03-15T01:01:07.569Z,96302.75
2023-03-15T01:03:37.056Z,96302.97
2023-03-15T01:06:09.908Z,96317.72
2023-03-15T01:08:39.977Z,96314.91
2023-03-15T01:11:11.967Z,96329.41
2023-03-15T01:13:41.025Z,96327.84
2023-03-15T01:16:11.153Z,96333.25
2023-03-15T01:18:41.397Z,96337.44
2023-03-15T01:21:10.769Z,96341.47
2023-03-15T01:23:40.846Z,96345.34
2023-03-15T01:26:12.573Z,96354.72
2023-03-15T01:28:41.152Z,96353.25
2023-03-15T01:31:11.370Z,96350.44
2023-03-15T01:33:40.031Z,96358.84
2023-03-15T01:36:10.172Z,96358.97
2023-03-15T01:38:41.369Z,96349.53
2023-03-15T01:41:11.009Z,96357.34
2023-03-15T01:43:39.457Z,96350.50
2023-03-15T01:46:26.676Z,96352.28
2023-03-15T01:49:05.347Z,96345.53
2023-03-15T01:51:40.246Z,96330.63
2023-03-15T01:54:12.300Z,96346.56
2023-03-15T01:56:43.948Z,96335.88
2023-03-15T01:59:15.800Z,96339.41
2023-03-15T02:01:46.004Z,96334.88
2023-03-15T02:04:19.645Z,96335.31
2023-03-15T02:06:50.687Z,96337.63
2023-03-15T02:09:22.420Z,96345.88
2023-03-15T02:11:50.905Z,96340.41
2023-03-15T02:14:22.539Z,96344.47
2023-03-15T02:16:53.643Z,96326.75
2023-03-15T02:19:36.563Z,96340.56
2023-03-15T02:22:19.754Z,96335.81
2023-03-15T02:24:53.836Z,96343.78
2023-03-15T02:27:29.186Z,96339.75
2023-03-15T02:29:57.709Z,96340.47
2023-03-15T02:32:26.284Z,96339.97
2023-03-15T02:34:54.637Z,96351.94
2023-03-15T02:37:23.097Z,96349.22
2023-03-15T02:39:51.556Z,96355.09
2023-03-15T02:42:20.286Z,96355.25
2023-03-15T02:44:52.290Z,96353.81
2023-03-15T02:47:23.248Z,96357.31
2023-03-15T02:49:53.975Z,96359.78
2023-03-15T02:52:22.842Z,96361.88
2023-03-15T02:54:51.498Z,96364.88
2023-03-15T02:57:20.765Z,96366.34
2023-03-15T02:59:51.469Z,96373.06
2023-03-15T03:02:20.764Z,96377.47
2023-03-15T03:04:49.210Z,96382.53
2023-03-15T03:07:20.210Z,96383.44
2023-03-15T03:09:52.807Z,96384.53
2023-03-15T03:12:22.578Z,96386.13
2023-03-15T03:14:52.434Z,96392.06
2023-03-15T03:17:24.692Z,96395.53
2023-03-15T03:19:53.067Z,96389.78
2023-03-15T03:22:27.564Z,96392.56
2023-03-15T03:24:56.302Z,96392.41
2023-03-15T03:27:24.709Z,96396.56
2023-03-15T03:29:54.420Z,96404.31
2023-03-15T03:32:23.053Z,96410.44
2023-03-15T03:34:53.515Z,96414.34
2023-03-15T03:37:24.165Z,96412.47
2023-03-15T03:40:00.496Z,96411.88
2023-03-15T03:42:29.110Z,96423.97
2023-03-15T03:44:58.928Z,96423.66
2023-03-15T03:47:34.277Z,96421.34
2023-03-15T03:50:02.646Z,96432.41
2023-03-15T03:52:31.291Z,96430.13
2023-03-15T03:55:07.811Z,96440.50
2023-03-15T03:57:36.288Z,96442.06
2023-03-15T04:00:11.855Z,96454.09
2023-03-15T04:02:43.965Z,96445.44
2023-03-15T04:05:14.835Z,96455.69
2023-03-15T04:07:43.595Z,96450.63
2023-03-15T04:10:14.995Z,96460.88
2023-03-15T04:12:46.985Z,96449.03
2023-03-15T04:15:18.549Z,96452.59
2023-03-15T04:17:47.003Z,96452.50
2023-03-15T04:20:17.607Z,96455.16
2023-03-15T04:22:49.756Z,96457.56
2023-03-15T04:25:26.907Z,96460.31
2023-03-15T04:28:06.142Z,96459.25
2023-03-15T04:30:52.446Z,96466.44
2023-03-15T04:33:43.526Z,96465.38
2023-03-15T04:36:30.140Z,96467.09
2023-03-15T04:39:34.491Z,96465.94
2023-03-15T04:42:26.196Z,96458.84
2023-03-15T04:45:00.201Z,96465.41
2023-03-15T04:48:05.627Z,96466.31
2023-03-15T04:50:41.136Z,96467.81
2023-03-15T04:53:30.127Z,96471.50
2023-03-15T04:56:32.836Z,96474.13
2023-03-15T04:59:32.933Z,96474.13
2023-03-15T05:02:24.894Z,96479.28
2023-03-15T05:05:17.650Z,96470.03
2023-03-15T05:08:11.843Z,96480.97
2023-03-15T05:11:03.301Z,96483.50
2023-03-15T05:13:47.984Z,96480.13
2023-03-15T05:16:36.265Z,96479.97
2023-03-15T05:19:17.809Z,96482.66
2023-03-15T05:22:03.856Z,96489.63
2023-03-15T05:25:04.866Z,96498.94
2023-03-15T05:28:00.156Z,96503.00
2023-03-15T05:30:36.429Z,96512.78
2023-03-15T05:33:25.529Z,96517.06
2023-03-15T05:36:22.834Z,96518.72
2023-03-15T05:39:33.253Z,96519.56
2023-03-15T05:42:13.595Z,96525.13
2023-03-15T05:44:47.513Z,96525.84
2023-03-15T05:47:35.886Z,96536.31
2023-03-15T05:50:07.779Z,96540.44
2023-03-15T05:52:57.117Z,96559.25
2023-03-15T05:55:44.882Z,96553.19
2023-03-15T05:58:29.065Z,96559.47
2023-03-15T06:01:06.394Z,96561.00
2023-03-15T06:03:59.109Z,96567.91
2023-03-15T06:06:33.551Z,96572.28
2023-03-15T06:09:03.017Z,96584.16
2023-03-15T06:11:32.852Z,96590.34
2023-03-15T06:14:02.326Z,96605.03
2023-03-15T06:16:39.177Z,96613.47
2023-03-15T06:19:08.675Z,96623.47
2023-03-15T06:21:37.112Z,96621.88
2023-03-15T06:24:11.221Z,96613.56
2023-03-15T06:26:40.968Z,96637.22
2023-03-15T06:29:09.631Z,96622.09
2023-03-15T06:31:38.028Z,96627.22
2023-03-15T06:34:10.166Z,96634.88
2023-03-15T06:36:38.913Z,96642.69
2023-03-15T06:39:07.853Z,96644.31
2023-03-15T06:41:36.129Z,96651.81
2023-03-15T06:44:14.045Z,96653.84
2023-03-15T06:46:43.154Z,96657.06
2023-03-15T06:49:13.890Z,96657.91
2023-03-15T06:51:45.228Z,96666.34
2023-03-15T06:54:13.673Z,96664.00
2023-03-15T06:56:41.985Z,96670.13
2023-03-15T06:59:10.454Z,96678.50
2023-03-15T07:01:40.633Z,96676.66
2023-03-15T07:04:09.660Z,96691.22
2023-03-15T07:06:38.158Z,96688.03
2023-03-15T07:09:07.017Z,96695.56
2023-03-15T07:11:35.406Z,96696.41
2023-03-15T07:14:03.690Z,96702.41
2023-03-15T07:16:32.032Z,96705.19
2023-03-15T07:19:02.261Z,96707.75
2023-03-15T07:21:30.800Z,96709.44
2023-03-15T07:23:59.160Z,96718.03
2023-03-15T07:26:27.420Z,96734.41
2023-03-15T07:28:55.803Z,96727.56
2023-03-15T07:31:24.090Z,96733.38
2023-03-15T07:33:52.418Z,96735.00
2023-03-15T07:36:22.360Z,96744.50
2023-03-15T07:38:50.792Z,96746.38
2023-03-15T07:41:19.561Z,96747.34
2023-03-15T07:43:59.192Z,96745.50
2023-03-15T07:46:28.422Z,96754.97
2023-03-15T07:48:56.856Z,96764.50
2023-03-15T07:51:26.507Z,96762.69
2023-03-15T07:53:54.806Z,96768.50
2023-03-15T07:56:23.160Z,96766.06
2023-03-15T07:58:51.445Z,96765.31
2023-03-15T08:01:19.778Z,96767.03
2023-03-15T08:03:48.285Z,96761.84
2023-03-15T08:06:16.570Z,96781.44
2023-03-15T08:08:46.794Z,96783.41
2023-03-15T08:11:15.110Z,96791.84
2023-03-15T08:13:43.390Z,96786.66
2023-03-15T08:16:11.750Z,96779.59
2023-03-15T08:18:40.112Z,96796.03
2023-03-15T08:21:08.363Z,96790.78
2023-03-15T08:23:36.662Z,96790.66
2023-03-15T08:26:06.674Z,96788.00
2023-03-15T08:28:35.069Z,96793.69
2023-03-15T08:31:07.932Z,96802.59
2023-03-15T08:33:36.351Z,96798.25
2023-03-15T08:36:05.023Z,96798.88
2023-03-15T08:38:33.330Z,96809.13
2023-03-15T08:41:01.680Z,96800.63
2023-03-15T08:43:31.357Z,96796.16
2023-03-15T08:46:01.486Z,96803.19
2023-03-15T08:48:31.657Z,96795.19
2023-03-15T08:51:04.533Z,96797.63
2023-03-15T08:53:33.259Z,96809.88
2023-03-15T08:56:01.732Z,96805.28
2023-03-15T08:58:31.586Z,96808.31
2023-03-15T09:01:00.105Z,96808.84
2023-03-15T09:03:28.450Z,96817.78
2023-03-15T09:06:00.596Z,96812.25
2023-03-15T09:08:28.881Z,96828.25
2023-03-15T09:10:57.518Z,96826.94
2023-03-15T09:13:32.621Z,96815.00
2023-03-15T09:16:03.530Z,96830.03
2023-03-15T09:18:31.939Z,96835.00
2023-03-15T09:21:00.283Z,96827.66
2023-03-15T09:23:28.691Z,96867.09
2023-03-15T09:25:57.008Z,96861.06
2023-03-15T09:28:26.735Z,96851.44
2023-03-15T09:30:55.283Z,96840.22
2023-03-15T09:33:25.382Z,96861.25
2023-03-15T09:35:54.207Z,96855.09
2023-03-15T09:38:24.227Z,96862.81
2023-03-15T09:40:57.752Z,96852.53
2023-03-15T09:43:40.207Z,96864.56
2023-03-15T09:46:20.188Z,96862.66
2023-03-15T09:48:52.413Z,96869.56
2023-03-15T09:51:30.400Z,96862.72
2023-03-15T09:54:00.471Z,96871.00
2023-03-15T09:56:31.132Z,96877.16
2023-03-15T09:59:01.790Z,96882.91
2023-03-15T10:01:33.056Z,96882.13
2023-03-15T10:04:06.465Z,96880.41
2023-03-15T10:06:37.808Z,96899.44
2023-03-15T10:09:13.940Z,96907.16
2023-03-15T10:11:47.914Z,96916.19
2023-03-15T10:14:26.210Z,96941.19
2023-03-15T10:16:54.482Z,96955.88
2023-03-15T10:19:35.598Z,96957.56
2023-03-15T10:22:19.988Z,96980.59
2023-03-15T10:24:51.658Z,96973.75
2023-03-15T10:27:23.174Z,96972.13
2023-03-15T10:29:53.776Z,96973.03
2023-03-15T10:32:24.160Z,96975.59
2023-03-15T10:34:56.754Z,96981.59
2023-03-15T10:37:25.545Z,96991.91
2023-03-15T10:39:57.483Z,96991.03
2023-03-15T10:42:27.884Z,96978.16
2023-03-15T10:44:56.326Z,96991.88
2023-03-15T10:47:25.831Z,96982.34
2023-03-15T10:50:00.576Z,96995.88
2023-03-15T10:52:35.360Z,96990.72
2023-03-15T10:55:06.935Z,96988.16
2023-03-15T10:57:39.145Z,96998.59
2023-03-15T11:00:20.596Z,96988.25
2023-03-15T11:02:52.889Z,96986.22
2023-03-15T11:05:22.993Z,96981.97
2023-03-15T11:07:56.089Z,96975.97
2023-03-15T11:10:26.359Z,96984.78
2023-03-15T11:13:20.752Z,96985.41
2023-03-15T11:15:58.126Z,96974.72
2023-03-15T11:18:29.431Z,96994.25
2023-03-15T11:20:59.873Z,96976.50
2023-03-15T11:23:30.358Z,96984.00
2023-03-15T11:25:59.107Z,96984.81
2023-03-15T11:28:29.494Z,96998.66
2023-03-15T11:31:02.053Z,96997.81
2023-03-15T11:33:39.941Z,96993.34
2023-03-15T11:36:14.732Z,96992.47
2023-03-15T11:38:46.354Z,96989.78
2023-03-15T11:41:23.550Z,96994.84
2023-03-15T11:43:57.891Z,97009.81
2023-03-15T11:46:29.619Z,97005.53
2023-03-15T11:49:03.709Z,97014.13
2023-03-15T11:51:37.053Z,97006.34
2023-03-15T11:54:15.258Z,97001.91
2023-03-15T11:56:52.917Z,97013.91
2023-03-15T11:59:25.670Z,97032.91
2023-03-15T12:01:57.884Z,97035.53
2023-03-15T12:04:45.429Z,97029.59
2023-03-15T12:07:39.820Z,97033.06
2023-03-15T12:10:31.845Z,97016.75
2023-03-15T12:13:01.771Z,97040.78
2023-03-15T12:15:47.707Z,97033.91
2023-03-15T12:18:18.206Z,97031.31
2023-03-15T12:20:52.431Z,97031.31
2023-03-15T12:23:34.241Z,97036.44
2023-03-15T12:26:08.205Z,97035.56
2023-03-15T12:28:38.246Z,97030.41
2023-03-15T12:31:08.186Z,97026.13
2023-03-15T12:33:47.660Z,97036.38
2023-03-15T12:36:27.914Z,97058.75
2023-03-15T12:39:01.961Z,97031.25
2023-03-15T12:41:39.250Z,97032.16
2023-03-15T12:44:29.144Z,97051.91
2023-03-15T12:47:00.669Z,97084.50
2023-03-15T12:49:35.280Z,97043.31
2023-03-15T12:52:05.896Z,97042.47
2023-03-15T12:54:43.741Z,97036.47
2023-03-15T12:57:14.189Z,97043.34
2023-03-15T12:59:47.743Z,97045.94
2023-03-15T13:02:41.816Z,97056.22
2023-03-15T13:05:18.527Z,97054.50
2023-03-15T13:07:58.209Z,97083.63
2023-03-15T13:10:41.587Z,97069.09
2023-03-15T13:13:35.141Z,97072.50
2023-03-15T13:16:15.578Z,97079.34
2023-03-15T13:18:52.883Z,97069.91
2023-03-15T13:21:26.110Z,97064.75
2023-03-15T13:23:58.027Z,97063.06
2023-03-15T13:26:44.161Z,97063.06
2023-03-15T13:29:17.741Z,97069.06
2023-03-15T13:31:47.183Z,97057.91
2023-03-15T13:34:19.474Z,97080.22
2023-03-15T13:36:49.651Z,97069.72
2023-03-15T13:39:20.722Z,97075.75
2023-03-15T13:41:57.789Z,97059.91
2023-03-15T13:44:26.948Z,97083.47
2023-03-15T13:46:55.913Z,97069.53
2023-03-15T13:49:24.666Z,97066.91
2023-03-15T13:51:54.619Z,97078.22
2023-03-15T13:54:26.795Z,97074.91
2023-03-15T13:57:01.812Z,97077.44
2023-03-15T13:59:33.850Z,97095.38
2023-03-15T14:02:03.701Z,97091.28
2023-03-15T14:04:34.104Z,97102.50
2023-03-15T14:07:14.295Z,97110.25
2023-03-15T14:09:42.637Z,97094.81
2023-03-15T14:12:20.125Z,97106.78
2023-03-15T14:14:51.631Z,97127.41
2023-03-15T14:17:23.980Z,97097.38
2023-03-15T14:19:55.487Z,97091.31
2023-03-15T14:22:24.335Z,97103.34
2023-03-15T14:24:53.609Z,97105.88
2023-03-15T14:27:27.574Z,97108.50
2023-03-15T14:29:56.673Z,97113.31
2023-03-15T14:32:28.959Z,97110.09
2023-03-15T14:35:02.786Z,97115.16
2023-03-15T14:37:34.083Z,97120.53
2023-03-15T14:40:22.006Z,97142.00
2023-03-15T14:42:52.595Z,97138.56
2023-03-15T14:45:22.504Z,97134.28
2023-03-15T14:47:57.211Z,97156.56
2023-03-15T14:50:28.698Z,97133.44
2023-03-15T14:52:58.403Z,97132.56
2023-03-15T14:55:34.892Z,97135.97
2023-03-15T14:58:05.783Z,97138.53
2023-03-15T15:00:34.523Z,97156.47
2023-03-15T15:03:03.269Z,97155.63
2023-03-15T15:05:32.728Z,97169.44
2023-03-15T15:08:04.151Z,97155.72
2023-03-15T15:10:35.003Z,97149.72
2023-03-15T15:13:07.064Z,97150.53
2023-03-15T15:15:54.142Z,97156.56
2023-03-15T15:18:28.373Z,97156.56
2023-03-15T15:20:57.565Z,97172.88
2023-03-15T15:23:28.559Z,97170.28
2023-03-15T15:25:59.816Z,97176.28
2023-03-15T15:28:36.080Z,97181.38
2023-03-15T15:31:07.370Z,97201.16
2023-03-15T15:33:36.786Z,97207.97
2023-03-15T15:36:09.321Z,97186.53
2023-03-15T15:38:40.291Z,97189.94
2023-03-15T15:41:15.864Z,97191.72
2023-03-15T15:43:45.934Z,97192.63
2023-03-15T15:46:16.315Z,97222.56
2023-03-15T15:48:45.604Z,97198.56
2023-03-15T15:51:21.551Z,97200.31
2023-03-15T15:53:50.491Z,97201.72
2023-03-15T15:56:19.088Z,97212.25
2023-03-15T15:58:49.052Z,97212.34
2023-03-15T16:01:18.692Z,97207.09
2023-03-15T16:03:48.701Z,97226.00
2023-03-15T16:06:22.273Z,97228.53
2023-03-15T16:08:53.891Z,97222.41
2023-03-15T16:11:22.850Z,97246.31
2023-03-15T16:13:54.672Z,97218.16
2023-03-15T16:16:25.769Z,97250.56
2023-03-15T16:19:01.639Z,97248.97
2023-03-15T16:21:34.450Z,97250.47
2023-03-15T16:24:07.932Z,97244.53
2023-03-15T16:26:38.958Z,97251.31
2023-03-15T16:29:17.856Z,97261.44
2023-03-15T16:31:47.728Z,97253.28
2023-03-15T16:34:23.773Z,97246.34
2023-03-15T16:36:59.376Z,97258.28
2023-03-15T16:39:38.154Z,97259.00
2023-03-15T16:42:13.195Z,97261.34
2023-03-15T16:44:44.963Z,97274.25
2023-03-15T16:47:26.372Z,97286.97
2023-03-15T16:49:59.897Z,97297.19
2023-03-15T16:52:31.727Z,97302.13
2023-03-15T16:55:01.843Z,97305.19
2023-03-15T16:57:31.384Z,97318.22
2023-03-15T17:00:05.364Z,97326.31
2023-03-15T17:02:35.448Z,97332.13
2023-03-15T17:05:05.422Z,97323.03
2023-03-15T17:07:38.792Z,97316.97
2023-03-15T17:10:12.487Z,97344.06
2023-03-15T17:12:42.588Z,97321.72
2023-03-15T17:15:17.200Z,97337.00
2023-03-15T17:17:47.965Z,97331.88
2023-03-15T17:20:22.279Z,97335.69
2023-03-15T17:23:00.482Z,97343.63
2023-03-15T17:25:31.694Z,97344.41
2023-03-15T17:28:05.858Z,97346.25
2023-03-15T17:30:41.676Z,97359.63
2023-03-15T17:33:13.747Z,97362.09
2023-03-15T17:35:48.545Z,97372.22
2023-03-15T17:38:22.282Z,97369.84
2023-03-15T17:40:54.222Z,97370.44
2023-03-15T17:43:26.905Z,97381.88
2023-03-15T17:45:58.256Z,97382.53
2023-03-15T17:48:34.727Z,97387.75
2023-03-15T17:51:08.286Z,97391.50
2023-03-15T17:53:45.333Z,97393.69
2023-03-15T17:56:17.728Z,97391.44
2023-03-15T17:59:00.008Z,97399.88
2023-03-15T18:01:43.138Z,97397.94
2023-03-15T18:04:13.029Z,97389.03
2023-03-15T18:06:43.164Z,97398.66
2023-03-15T18:09:15.649Z,97404.69
2023-03-15T18:11:48.675Z,97408.72
2023-03-15T18:14:22.101Z,97412.72
2023-03-15T18:16:54.032Z,97409.53
2023-03-15T18:19:25.836Z,97414.97
2023-03-15T18:21:55.484Z,97414.66
2023-03-15T18:24:26.336Z,97420.31
2023-03-15T18:26:58.487Z,97417.03
2023-03-15T18:29:33.404Z,97421.00
2023-03-15T18:32:04.813Z,97414.91
2023-03-15T18:34:35.575Z,97424.78
2023-03-15T18:37:10.026Z,97427.09
2023-03-15T18:39:41.442Z,97431.25
2023-03-15T18:42:22.610Z,97437.06
2023-03-15T18:44:57.381Z,97435.13
2023-03-15T18:47:36.158Z,97434.16
2023-03-15T18:50:10.478Z,97428.53
2023-03-15T18:52:44.713Z,97434.69
2023-03-15T18:55:20.212Z,97438.94
2023-03-15T18:57:53.709Z,97435.66
2023-03-15T19:00:27.957Z,97443.09
2023-03-15T19:03:02.139Z,97451.19
2023-03-15T19:05:43.754Z,97440.66
2023-03-15T19:08:15.456Z,97441.19
2023-03-15T19:10:55.736Z,97445.22
2023-03-15T19:13:36.797Z,97448.19
2023-03-15T19:16:10.403Z,97443.16
2023-03-15T19:18:47.843Z,97458.13
2023-03-15T19:21:20.101Z,97454.91
2023-03-15T19:23:57.117Z,97460.38
2023-03-15T19:26:32.937Z,97456.72
2023-03-15T19:29:08.993Z,97458.13
2023-03-15T19:31:44.716Z,97465.78
2023-03-15T19:34:32.164Z,97463.16
2023-03-15T19:37:16.744Z,97459.69
2023-03-15T19:39:56.240Z,97458.25
2023-03-15T19:42:31.850Z,97458.34
2023-03-15T19:45:14.583Z,97455.63
2023-03-15T19:47:46.380Z,97467.56
2023-03-15T19:50:23.713Z,97457.88
2023-03-15T19:52:58.848Z,97467.88
2023-03-15T19:55:38.875Z,97461.16
2023-03-15T20:01:29.953Z,97473.56
2023-03-15T20:04:03.774Z,97473.66
2023-03-15T20:06:37.212Z,97465.28
2023-03-15T20:09:15.952Z,97478.38
2023-03-15T20:11:54.999Z,97465.69
2023-03-15T20:14:32.094Z,97469.84
2023-03-15T20:17:13.997Z,97482.16
2023-03-15T20:19:47.458Z,97475.44
2023-03-15T20:22:44.168Z,97486.03
2023-03-15T20:25:29.397Z,97493.59
2023-03-15T20:28:08.890Z,97495.44
2023-03-15T20:30:45.760Z,97497.31
2023-03-15T20:33:21.267Z,97499.34
2023-03-15T20:35:59.848Z,97501.56
2023-03-15T20:38:43.298Z,97502.41
2023-03-15T20:41:19.851Z,97511.31
2023-03-15T20:44:04.432Z,97513.81
2023-03-15T20:46:45.025Z,97515.03
2023-03-15T20:49:33.866Z,97513.63
2023-03-15T20:52:10.357Z,97519.25
2023-03-15T20:55:01.723Z,97520.06
2023-03-15T20:57:38.195Z,97522.38
2023-03-15T21:00:15.557Z,97517.81
2023-03-15T21:02:59.812Z,97510.25
2023-03-15T21:05:39.053Z,97518.28
2023-03-15T21:08:12.644Z,97527.56
2023-03-15T21:10:55.921Z,97525.75
2023-03-15T21:13:50.421Z,97531.03
2023-03-15T21:16:26.410Z,97533.91
2023-03-15T21:19:03.693Z,97548.03
2023-03-15T21:21:34.961Z,97547.66
2023-03-15T21:24:07.636Z,97554.59
2023-03-15T21:26:39.409Z,97558.06
2023-03-15T21:29:10.901Z,97562.63
2023-03-15T21:31:43.126Z,97555.94
2023-03-15T21:34:20.535Z,97560.88
2023-03-15T21:36:51.656Z,97573.63
2023-03-15T21:39:21.609Z,97567.47
2023-03-15T21:41:53.372Z,97572.59
2023-03-15T21:44:22.815Z,97572.47
2023-03-15T21:46:53.113Z,97565.88
2023-03-15T21:49:22.256Z,97559.38
2023-03-15T21:51:52.079Z,97556.31
2023-03-15T21:54:22.413Z,97545.47
2023-03-15T21:56:53.577Z,97533.63
2023-03-15T21:59:27.861Z,97545.41
2023-03-15T22:01:56.843Z,97544.38
2023-03-15T22:04:25.979Z,97541.47
2023-03-15T22:06:54.725Z,97546.34
2023-03-15T22:09:23.995Z,97548.22
2023-03-15T22:11:53.878Z,97538.59
2023-03-15T22:14:22.523Z,97542.59
2023-03-15T22:16:51.706Z,97540.81
2023-03-15T22:19:20.040Z,97538.00
2023-03-15T22:21:48.683Z,97545.81
2023-03-15T22:24:17.017Z,97562.34
2023-03-15T22:26:45.946Z,97571.38
2023-03-15T22:29:15.858Z,97570.47
2023-03-15T22:31:44.156Z,97575.47
2023-03-15T22:34:13.175Z,97586.31
2023-03-15T22:36:42.808Z,97588.50
2023-03-15T22:39:11.726Z,97583.53
2023-03-15T22:41:41.416Z,97583.25
2023-03-15T22:44:09.752Z,97589.47
2023-03-15T22:46:39.516Z,97601.97
2023-03-15T22:49:08.056Z,97588.56
2023-03-15T22:51:40.432Z,97592.25
2023-03-15T22:54:09.285Z,97591.97
2023-03-15T22:56:40.986Z,97594.41
2023-03-15T22:59:09.426Z,97605.88
2023-03-15T23:01:39.092Z,97611.97
2023-03-15T23:04:07.729Z,97613.78
2023-03-15T23:06:36.152Z,97613.63
2023-03-15T23:09:06.556Z,97612.25
2023-03-15T23:11:35.001Z,97616.69
2023-03-15T23:14:03.279Z,97624.94
2023-03-15T23:16:32.057Z,97621.97
2023-03-15T23:19:03.368Z,97616.44
2023-03-15T23:21:31.772Z,97611.63
2023-03-15T23:24:00.277Z,97612.41
2023-03-15T23:26:28.741Z,97617.25
2023-03-15T23:28:57.290Z,97616.94
2023-03-15T23:31:25.618Z,97622.72
2023-03-15T23:33:53.950Z,97627.66
2023-03-15T23:36:23.697Z,97624.75
2023-03-15T23:38:53.407Z,97629.38
2023-03-15T23:41:21.798Z,97633.00
2023-03-15T23:43:50.039Z,97631.03
2023-03-15T23:46:18.413Z,97633.22
2023-03-15T23:48:46.800Z,97631.28
2023-03-15T23:51:15.197Z,97638.94
2023-03-15T23:53:44.999Z,97642.88
2023-03-15T23:56:13.311Z,97633.63
2023-03-15T23:58:41.567Z,97648.13
